Time;durP1;ratioP1;P1;durP2;ratioP2;P2;SDS_P1;SDS_P2;PMS_P1;PMS_P2;Temp;Humidity;BMP_temperature;BMP_pressure;BME280_temperature;BME280_humidity;BME280_pressure;Samples;Min_cycle;Max_cycle;Signal;HPM_P1;HPM_P2
2023/01/08 01:12:33;;;;;;;35.92;19.48;;;;;;;5.25;81.39;101676.09;1636926;23;20291;-90
2023/01/08 01:15:47;;;;;;;33.53;18.23;;;;;;;5.20;81.39;101682.69;5016138;28;20042;-91
2023/01/08 01:19:13;;;;;;;28.75;17.02;;;;;;;5.03;81.40;101662.47;5011141;28;20053;-91
2023/01/08 02:15:43;;;;;;;31.65;18.95;;;;;;;6.13;80.55;101660.34;5031543;23;20082;-91
2023/01/08 02:18:59;;;;;;;33.00;18.65;;;;;;;5.98;81.06;101648.06;4968219;28;20046;-90
2023/01/08 02:21:47;;;;;;;37.00;17.60;;;;;;;6.20;80.63;101654.56;4953738;29;20068;-91
2023/01/08 02:24:48;;;;;;;31.98;17.92;;;;;;;6.28;80.12;101655.72;4962663;29;20114;-89
2023/01/08 02:27:57;;;;;;;37.65;18.45;;;;;;;6.39;79.95;101662.13;4986880;28;20039;-91
2023/01/08 02:30:50;;;;;;;30.95;17.83;;;;;;;6.29;79.64;101621.88;4963503;28;20046;-91
2023/01/08 02:33:47;;;;;;;34.05;18.20;;;;;;;6.37;79.15;101615.97;4958169;29;20051;-92
2023/01/08 02:37:27;;;;;;;28.40;17.77;;;;;;;6.42;79.05;101620.03;4982472;28;20094;-91
2023/01/08 02:40:39;;;;;;;30.77;17.63;;;;;;;6.72;78.92;101650.84;4995305;28;20045;-90
2023/01/08 02:43:46;;;;;;;31.23;16.85;;;;;;;6.59;78.63;101645.53;4962877;28;20105;-92
2023/01/08 02:46:59;;;;;;;31.98;18.35;;;;;;;6.65;78.55;101655.78;4978282;28;20313;-90
2023/01/08 02:53:25;;;;;;;29.30;17.95;;;;;;;6.64;78.17;101655.88;5133061;23;20121;-90
2023/01/08 03:04:52;;;;;;;32.60;18.17;;;;;;;6.31;78.79;101639.47;1319696;23;20025;-90
2023/01/08 03:17:32;;;;;;;26.75;14.73;;;;;;;6.38;82.71;101644.41;5036128;23;20050;-92
2023/01/08 03:20:31;;;;;;;27.60;14.80;;;;;;;6.31;81.89;101635.97;5010858;28;20038;-91
2023/01/08 03:23:10;;;;;;;20.98;11.23;;;;;;;6.36;82.43;101636.47;5002752;28;20114;-92
2023/01/08 03:25:58;;;;;;;32.28;17.08;;;;;;;6.33;81.63;101626.88;4976426;28;20110;-91
2023/01/08 03:29:12;;;;;;;32.53;18.42;;;;;;;6.32;80.66;101653.69;5002025;28;20114;-92
2023/01/08 03:32:18;;;;;;;31.77;16.27;;;;;;;6.48;80.30;101640.94;5003604;28;20041;-90
2023/01/08 03:35:11;;;;;;;34.90;17.00;;;;;;;6.73;79.93;101663.22;4996176;28;20034;-90
2023/01/08 03:38:32;;;;;;;22.35;14.13;;;;;;;6.70;80.99;101647.44;4996945;28;20102;-91
2023/01/08 03:41:33;;;;;;;22.20;13.35;;;;;;;6.74;82.32;101635.53;4980823;28;20077;-91
2023/01/08 03:44:03;;;;;;;22.80;12.73;;;;;;;6.71;82.06;101638.44;4993957;28;20030;-90
2023/01/08 03:46:48;;;;;;;29.35;15.48;;;;;;;6.64;80.80;101615.78;4997088;28;20046;-91
2023/01/08 03:49:21;;;;;;;28.85;16.02;;;;;;;6.82;80.05;101654.53;5008028;28;20035;-91
2023/01/08 05:17:37;;;;;;;42.00;22.30;;;;;;;6.39;79.06;101624.72;4993803;28;20079;-91
2023/01/08 05:31:23;;;;;;;29.00;17.30;;;;;;;6.85;78.77;101648.13;2928033;22;20042;-90
2023/01/08 05:34:12;;;;;;;28.70;15.32;;;;;;;6.78;78.92;101646.84;5008831;28;20061;-92
2023/01/08 05:37:23;;;;;;;36.85;19.85;;;;;;;6.89;79.07;101650.44;4980656;28;20081;-90
2023/01/08 05:40:32;;;;;;;28.00;15.25;;;;;;;6.88;79.47;101640.75;5026589;28;20126;-91
2023/01/08 05:49:02;;;;;;;36.65;19.45;;;;;;;7.13;79.81;101684.38;4997217;23;20054;-90
2023/01/08 05:52:28;;;;;;;;;;;;;;;;;;;;;
2023/01/08 07:22:12;;;;;;;25.10;15.25;;;;;;;10.48;70.94;101697.56;4449261;26;20126;-89
2023/01/08 07:24:38;;;;;;;25.65;15.75;;;;;;;11.28;69.41;101707.41;4964099;28;20059;-85
2023/01/08 07:27:05;;;;;;;16.23;11.45;;;;;;;12.33;65.49;101716.56;4939709;29;20035;-85
2023/01/08 07:29:31;;;;;;;27.55;15.60;;;;;;;13.96;59.78;101717.53;4929327;29;20167;-86
2023/01/08 07:31:58;;;;;;;28.02;16.30;;;;;;;15.17;56.86;101728.31;4947898;29;20062;-83
2023/01/08 07:34:26;;;;;;;22.92;14.00;;;;;;;16.80;51.75;101711.16;4926787;29;20035;-85
2023/01/08 07:36:52;;;;;;;17.60;12.70;;;;;;;17.53;49.25;101700.84;4952802;29;20119;-84
2023/01/08 07:39:25;;;;;;;19.15;12.23;;;;;;;17.06;49.44;101694.53;4934559;29;20039;-88
2023/01/08 07:41:55;;;;;;;13.98;9.48;;;;;;;16.43;50.53;101728.03;4966767;28;20047;-87
2023/01/08 07:44:35;;;;;;;16.30;10.95;;;;;;;16.37;51.14;101726.88;4951630;28;20071;-86
2023/01/08 07:47:02;;;;;;;16.73;10.90;;;;;;;16.64;50.95;101711.19;5027494;23;20044;-87
2023/01/08 07:49:51;;;;;;;17.38;11.77;;;;;;;17.55;48.85;101725.16;5013570;28;20059;-90
2023/01/08 07:52:19;;;;;;;16.60;11.20;;;;;;;18.76;45.83;101719.59;5019123;28;20129;-89
2023/01/08 07:54:49;;;;;;;14.90;10.13;;;;;;;19.99;42.92;101712.34;5007321;28;20053;-89
2023/01/08 07:57:16;;;;;;;18.10;11.02;;;;;;;19.77;42.14;101695.16;4999217;28;20042;-90
2023/01/08 07:59:45;;;;;;;15.20;10.57;;;;;;;20.24;41.20;101695.50;5015177;28;20038;-86
2023/01/08 08:02:12;;;;;;;14.85;9.40;;;;;;;20.36;40.78;101721.22;5009100;28;20034;-87
2023/01/08 08:04:40;;;;;;;13.18;9.48;;;;;;;20.49;40.67;101714.16;5027145;28;20055;-89
2023/01/08 08:07:06;;;;;;;11.88;9.18;;;;;;;19.36;41.93;101720.34;5000459;28;20064;-88
2023/01/08 08:09:52;;;;;;;13.50;9.18;;;;;;;18.97;43.00;101715.25;4980808;28;20053;-87
2023/01/08 08:12:19;;;;;;;11.27;8.93;;;;;;;19.05;42.58;101726.03;5010231;28;20046;-87
2023/01/08 08:14:49;;;;;;;12.00;9.10;;;;;;;19.84;41.64;101722.50;5014787;28;20523;-88
2023/01/08 08:17:16;;;;;;;13.27;9.35;;;;;;;21.48;38.54;101720.06;5015018;28;20053;-88
2023/01/08 08:19:43;;;;;;;11.90;8.85;;;;;;;21.51;37.47;101707.84;4999017;28;20034;-87
2023/01/08 08:22:11;;;;;;;10.52;8.13;;;;;;;22.26;36.18;101718.63;5002858;28;20059;-89
2023/01/08 08:24:36;;;;;;;12.52;9.30;;;;;;;22.78;35.27;101714.09;5007193;28;20056;-88
2023/01/08 08:27:08;;;;;;;16.65;9.77;;;;;;;23.55;33.83;101716.88;4997615;28;20050;-88
2023/01/08 08:29:38;;;;;;;13.25;9.27;;;;;;;22.54;34.83;101713.72;4993552;28;20088;-87
2023/01/08 08:32:05;;;;;;;14.35;9.93;;;;;;;20.28;39.60;101694.06;5002830;28;20045;-87
2023/01/08 08:34:36;;;;;;;13.93;9.70;;;;;;;20.56;39.35;101720.53;5005897;28;20447;-86
2023/01/08 08:37:14;;;;;;;13.70;9.85;;;;;;;20.22;39.86;101709.34;5205028;23;20381;-92
2023/01/08 08:42:23;;;;;;;16.05;10.38;;;;;;;20.94;38.79;101722.81;5140522;23;20046;-88
2023/01/08 08:44:49;;;;;;;11.60;8.85;;;;;;;22.47;35.85;101712.06;4980353;28;20097;-87
2023/01/08 08:47:19;;;;;;;10.95;8.55;;;;;;;22.59;34.72;101714.97;4987421;28;20039;-93
2023/01/08 08:49:44;;;;;;;12.77;10.07;;;;;;;21.36;36.64;101708.03;4965418;28;20352;-86
2023/01/08 08:52:10;;;;;;;28.63;17.77;;;;;;;21.07;37.10;101712.78;4955568;28;20055;-83
2023/01/08 08:54:40;;;;;;;11.35;8.50;;;;;;;20.30;38.65;101708.38;4959223;28;20039;-83
2023/01/08 08:57:08;;;;;;;13.35;9.98;;;;;;;21.02;37.43;101689.81;4960256;28;20046;-86
2023/01/08 08:59:33;;;;;;;12.75;9.93;;;;;;;22.88;34.76;101692.53;4960211;28;20041;-85
2023/01/08 09:02:01;;;;;;;11.38;8.10;;;;;;;24.95;31.26;101701.81;4953589;28;20038;-84
2023/01/08 09:04:31;;;;;;;14.55;8.93;;;;;;;26.74;27.80;101700.81;4991571;28;20038;-82
2023/01/08 09:06:56;;;;;;;12.48;8.93;;;;;;;27.59;26.25;101693.63;4952822;28;20045;-84
2023/01/08 09:09:23;;;;;;;10.10;7.60;;;;;;;28.09;25.50;101691.94;4956152;28;20030;-83
2023/01/08 09:11:49;;;;;;;10.75;8.23;;;;;;;26.41;26.79;101698.66;4969777;28;20117;-83
2023/01/08 09:14:15;;;;;;;16.15;8.10;;;;;;;26.42;26.81;101692.09;4959367;28;20034;-82
2023/01/08 09:16:41;;;;;;;11.65;8.10;;;;;;;26.67;26.65;101681.63;5003797;28;20107;-84
2023/01/08 09:19:08;;;;;;;14.13;8.80;;;;;;;27.77;25.68;101692.53;4978045;28;20051;-82
2023/01/08 09:21:34;;;;;;;10.20;8.48;;;;;;;28.09;25.10;101669.84;4951374;28;20048;-87
2023/01/08 09:24:02;;;;;;;11.50;8.10;;;;;;;28.94;24.60;101678.72;4983800;28;20453;-84
2023/01/08 09:26:30;;;;;;;16.05;8.35;;;;;;;29.32;23.77;101665.88;4963956;28;20046;-84
2023/01/08 09:28:59;;;;;;;12.30;8.07;;;;;;;29.16;23.65;101674.00;4951364;28;20042;-82
2023/01/08 09:31:25;;;;;;;10.98;8.13;;;;;;;30.91;22.96;101659.44;4954557;28;20076;-89
2023/01/08 09:33:53;;;;;;;10.18;7.78;;;;;;;31.57;20.71;101657.88;4960267;28;20042;-88
2023/01/08 09:36:21;;;;;;;9.85;7.30;;;;;;;30.33;21.89;101661.38;4981595;28;20054;-83
2023/01/08 09:38:47;;;;;;;11.35;6.60;;;;;;;30.01;22.59;101663.09;4962556;28;20049;-85
2023/01/08 09:41:16;;;;;;;10.27;6.38;;;;;;;28.95;23.69;101661.03;4940534;28;20046;-83
2023/01/08 09:43:44;;;;;;;8.75;6.63;;;;;;;26.57;26.71;101662.09;4989873;28;20129;-86
2023/01/08 09:46:12;;;;;;;7.57;6.20;;;;;;;25.93;27.66;101644.66;4960135;28;20054;-86
2023/01/08 09:48:39;;;;;;;8.07;6.50;;;;;;;25.43;28.94;101643.16;4957043;28;20495;-87
2023/01/08 09:51:16;;;;;;;8.32;6.70;;;;;;;24.88;29.79;101646.06;4986688;28;20047;-87
2023/01/08 09:53:44;;;;;;;9.57;6.28;;;;;;;24.41;30.44;101657.59;4958805;28;20041;-85
2023/01/08 09:56:14;;;;;;;8.75;6.45;;;;;;;24.94;30.41;101656.13;4985973;28;20039;-86
2023/01/08 09:58:44;;;;;;;10.38;6.28;;;;;;;24.79;30.11;101651.03;4958752;28;20051;-87
2023/01/08 10:01:12;;;;;;;9.35;6.70;;;;;;;24.23;30.98;101618.06;4973509;28;20106;-87
2023/01/08 10:03:43;;;;;;;10.38;6.90;;;;;;;25.20;29.87;101643.94;4957049;28;20035;-86
2023/01/08 10:06:14;;;;;;;8.32;5.90;;;;;;;24.07;31.31;101645.28;4965963;28;20058;-88
2023/01/08 10:08:43;;;;;;;10.15;6.90;;;;;;;23.97;31.08;101641.13;4994391;28;20153;-88
2023/01/08 10:11:12;;;;;;;9.77;6.55;;;;;;;23.15;32.41;101632.06;4994627;28;20042;-88
2023/01/08 10:13:39;;;;;;;9.70;6.78;;;;;;;;;;4949519;28;20023;-86
2023/01/08 10:16:06;;;;;;;10.95;5.93;;;;;;;23.24;32.64;101622.53;4996865;28;20057;-87
2023/01/08 10:18:32;;;;;;;8.27;6.05;;;;;;;22.82;32.71;101602.94;4976711;28;20098;-87
2023/01/08 10:20:59;;;;;;;8.98;6.07;;;;;;;23.93;30.63;101615.22;4972186;28;20059;-87
2023/01/08 10:23:25;;;;;;;10.05;5.82;;;;;;;23.75;30.83;101615.19;4968963;28;20561;-89
2023/01/08 10:25:53;;;;;;;7.63;5.93;;;;;;;23.60;31.51;101619.09;4947337;28;20493;-84
2023/01/08 10:28:30;;;;;;;9.23;6.13;;;;;;;23.29;31.88;101619.94;4987435;28;20034;-86
2023/01/08 10:31:08;;;;;;;7.65;5.70;;;;;;;25.14;29.03;101606.31;4987384;28;20050;-87
2023/01/08 10:34:07;;;;;;;10.52;5.95;;;;;;;25.55;28.62;101608.22;4964816;28;20039;-87
2023/01/08 10:36:38;;;;;;;6.88;5.70;;;;;;;26.61;26.82;101597.13;4966396;28;20038;-87
2023/01/08 10:39:06;;;;;;;8.75;6.10;;;;;;;26.16;27.01;101596.97;4958804;28;20064;-88
2023/01/08 10:41:39;;;;;;;8.88;5.93;;;;;;;26.95;25.99;101564.13;4950667;28;20436;-88
2023/01/08 10:44:12;;;;;;;9.27;5.72;;;;;;;26.80;26.28;101585.88;4970190;28;20116;-85
2023/01/08 10:46:42;;;;;;;7.95;5.20;;;;;;;26.63;25.77;101564.63;4947636;28;20051;-84
2023/01/08 10:49:37;;;;;;;7.72;6.05;;;;;;;27.44;25.25;101567.19;4955692;28;20090;-83
2023/01/08 10:52:03;;;;;;;9.65;6.00;;;;;;;27.99;24.61;101560.81;4953604;28;20105;-84
2023/01/08 10:54:36;;;;;;;6.90;5.68;;;;;;;27.75;24.93;101575.94;4976564;28;20034;-82
2023/01/08 10:57:17;;;;;;;6.72;5.70;;;;;;;26.47;26.09;101566.19;4992213;28;20042;-86
2023/01/08 10:59:43;;;;;;;10.70;6.32;;;;;;;28.00;25.02;101567.16;4958742;28;20404;-83
2023/01/08 11:02:37;;;;;;;10.52;6.03;;;;;;;27.05;26.43;101567.03;4976114;28;20038;-84
2023/01/08 11:05:04;;;;;;;9.70;6.50;;;;;;;27.46;25.97;101572.44;4987543;28;20491;-85
2023/01/08 11:07:34;;;;;;;9.57;6.32;;;;;;;25.19;28.29;101562.44;4956707;28;20084;-85
2023/01/08 11:10:01;;;;;;;7.35;5.90;;;;;;;24.51;29.57;101569.97;4950230;28;20050;-85
2023/01/08 11:12:34;;;;;;;8.43;6.70;;;;;;;24.67;29.25;101575.91;4953292;28;20185;-88
2023/01/08 11:15:03;;;;;;;10.02;6.28;;;;;;;24.87;29.77;101568.22;4997386;28;20038;-88
2023/01/08 11:17:31;;;;;;;12.13;7.00;;;;;;;24.61;29.53;101564.78;4962255;28;20047;-90
2023/01/08 11:20:06;;;;;;;8.57;6.80;;;;;;;25.77;28.42;101563.56;4991073;28;20414;-87
2023/01/08 11:22:32;;;;;;;9.57;6.40;;;;;;;25.71;28.77;101562.63;4969232;28;20050;-86
2023/01/08 11:25:04;;;;;;;8.32;6.35;;;;;;;24.49;30.02;101563.88;4975149;28;20365;-87
2023/01/08 11:27:35;;;;;;;10.13;6.90;;;;;;;25.49;29.21;101574.22;4970336;28;20161;-88
2023/01/08 11:30:26;;;;;;;11.43;7.63;;;;;;;24.74;29.71;101574.72;4961941;28;20518;-87
2023/01/08 11:33:11;;;;;;;12.13;7.78;;;;;;;24.11;30.51;101545.72;4965624;28;20079;-89
2023/01/08 11:35:43;;;;;;;8.57;6.55;;;;;;;22.43;33.64;101568.34;4972419;28;20125;-89
2023/01/08 11:38:12;;;;;;;8.82;7.00;;;;;;;21.73;35.08;101573.56;4980645;28;20040;-87
2023/01/08 11:41:02;;;;;;;10.55;7.32;;;;;;;21.97;35.27;101575.63;4977936;28;20042;-88
2023/01/08 11:43:55;;;;;;;10.60;7.88;;;;;;;21.90;35.38;101575.66;5002731;28;20146;-88
2023/01/08 11:46:51;;;;;;;11.07;7.95;;;;;;;22.35;34.73;101569.44;5007215;28;20138;-87
2023/01/08 11:49:42;;;;;;;10.52;7.80;;;;;;;22.03;35.39;101563.84;5004901;28;20053;-88
2023/01/08 11:52:17;;;;;;;10.93;8.05;;;;;;;22.64;34.48;101551.59;4988148;28;20093;-87
2023/01/08 11:54:55;;;;;;;8.73;6.80;;;;;;;23.57;33.04;101569.28;5007098;28;20062;-87
2023/01/08 12:00:19;;;;;;;8.63;5.25;;;;;;;22.58;33.47;101565.34;5388542;23;20274;-86
2023/01/08 12:03:45;;;;;;;6.97;4.93;;;;;;;21.68;34.80;101539.50;5006214;28;20108;-87
2023/01/08 12:06:27;;;;;;;7.35;5.47;;;;;;;21.87;34.96;101569.78;4973479;28;20030;-90
2023/01/08 12:09:21;;;;;;;7.50;5.25;;;;;;;21.55;35.63;101555.91;5004708;28;20035;-87
2023/01/08 12:12:27;;;;;;;8.02;5.53;;;;;;;21.14;35.92;101559.69;4992596;28;20026;-92
2023/01/08 12:15:28;;;;;;;7.40;5.30;;;;;;;20.96;36.96;101567.66;5308482;23;20129;31
2023/01/08 12:18:24;;;;;;;8.75;4.93;;;;;;;19.52;39.75;101568.38;4972279;28;20059;-89
2023/01/08 12:21:18;;;;;;;8.55;5.75;;;;;;;19.43;40.03;101570.41;4960002;29;20096;-87
2023/01/08 12:24:00;;;;;;;8.93;5.80;;;;;;;19.69;39.90;101567.09;4967192;28;20252;-86
2023/01/08 12:26:44;;;;;;;6.68;5.57;;;;;;;19.42;40.77;101563.28;4944815;28;20066;-87
2023/01/08 12:29:23;;;;;;;12.02;6.07;;;;;;;18.34;43.30;101563.19;4962373;28;20035;-86
2023/01/08 12:31:56;;;;;;;10.40;6.47;;;;;;;16.89;46.91;101562.59;4951175;29;20023;-87
2023/01/08 12:34:50;;;;;;;8.23;6.32;;;;;;;16.58;48.29;101566.16;4978347;28;20514;-88
2023/01/08 12:37:24;;;;;;;8.30;6.13;;;;;;;16.33;49.05;101568.13;4968280;28;20047;-91
2023/01/08 12:39:55;;;;;;;8.18;5.22;;;;;;;16.04;49.46;101563.34;4951216;28;20066;-88
2023/01/08 12:42:23;;;;;;;8.43;5.60;;;;;;;14.88;52.72;101544.66;4972254;28;20412;-90
2023/01/08 12:44:54;;;;;;;9.55;6.90;;;;;;;15.04;53.37;101565.47;4950931;28;20043;-89
2023/01/08 12:47:24;;;;;;;9.00;5.88;;;;;;;15.16;52.62;101550.59;4973781;28;20077;-90
2023/01/08 12:50:07;;;;;;;9.48;6.20;;;;;;;14.81;53.26;101551.75;4958627;28;20090;-89
2023/01/08 12:52:44;;;;;;;;;;;;;;;14.40;54.13;101559.72;4956581;29;20436;-88
2023/01/08 12:55:13;;;;;;;;;;;;;;;14.41;54.62;101562.28;4970127;28;19989;-87
2023/01/08 12:57:47;;;;;;;10.10;6.28;;;;;;;14.38;54.79;101554.50;4971790;28;19928;-86
2023/01/08 13:00:58;;;;;;;9.30;6.22;;;;;;;14.14;55.22;101566.03;5119967;23;20130;-87
2023/01/08 13:03:28;;;;;;;10.07;6.32;;;;;;;14.05;55.29;101548.97;5024332;23;20058;-90
2023/01/08 13:06:07;;;;;;;10.38;6.80;;;;;;;13.92;55.93;101545.84;4991997;28;20106;-90
2023/01/08 13:08:37;;;;;;;9.80;6.53;;;;;;;13.93;56.21;101555.66;4970572;28;20043;-89
2023/01/08 13:11:17;;;;;;;13.45;7.75;;;;;;;13.75;57.36;101563.00;4994484;28;20146;-89
2023/01/08 13:14:00;;;;;;;9.48;7.05;;;;;;;13.52;57.56;101542.75;4966240;28;20081;-89
2023/01/08 13:16:45;;;;;;;11.55;6.47;;;;;;;13.48;57.86;101562.13;4982505;28;20038;-88
2023/01/08 13:19:53;;;;;;;9.30;6.55;;;;;;;13.26;59.10;101574.25;4989279;28;20125;-91
2023/01/08 13:22:36;;;;;;;10.30;6.13;;;;;;;12.59;61.29;101571.06;4951883;29;20043;-90
2023/01/08 13:25:20;;;;;;;11.60;7.78;;;;;;;12.37;62.56;101578.59;4992458;28;20050;-87
2023/01/08 13:27:46;;;;;;;12.45;7.55;;;;;;;12.30;63.21;101572.09;5011109;28;20176;-91
2023/01/08 13:30:45;;;;;;;10.55;7.28;;;;;;;12.00;64.12;101568.69;4979304;28;20847;-90
2023/01/08 13:33:42;;;;;;;9.77;7.22;;;;;;;11.91;65.02;101574.13;4993175;28;20035;-92
2023/01/08 13:36:38;;;;;;;15.25;8.55;;;;;;;11.36;67.22;101582.88;4987170;28;20035;-90
2023/01/08 13:39:22;;;;;;;13.77;8.77;;;;;;;11.04;68.23;101584.00;4979679;28;20118;-89
2023/01/08 13:42:13;;;;;;;12.80;8.30;;;;;;;10.66;69.51;101556.09;5020617;23;20109;-93
2023/01/08 13:50:54;;;;;;;17.38;11.35;;;;;;;10.49;71.22;101567.56;4987876;28;20042;-86
2023/01/08 13:53:44;;;;;;;15.43;10.25;;;;;;;10.57;71.32;101591.88;4979805;28;20102;-90
2023/01/08 13:56:24;;;;;;;15.40;9.38;;;;;;;10.39;71.30;101572.03;4989064;28;20046;-87
2023/01/08 13:59:00;;;;;;;13.80;8.85;;;;;;;10.30;72.24;101579.06;4993071;28;20054;-88
2023/01/08 14:01:36;;;;;;;15.23;10.13;;;;;;;10.27;72.64;101579.31;4985917;28;20053;-88
2023/01/08 14:04:24;;;;;;;15.25;9.88;;;;;;;10.04;72.94;101574.13;5049783;23;20066;-89
2023/01/08 14:07:25;;;;;;;17.73;10.43;;;;;;;9.97;73.35;101556.00;5010106;28;20078;-87
2023/01/08 14:10:49;;;;;;;14.82;10.52;;;;;;;9.99;73.29;101575.53;4995371;28;20035;-89
2023/01/08 14:13:36;;;;;;;16.50;10.40;;;;;;;10.01;73.25;101576.25;5079178;23;20097;-90
2023/01/08 14:19:22;;;;;;;15.20;10.60;;;;;;;9.50;75.16;101560.03;5305332;22;20101;-87
2023/01/08 14:21:51;;;;;;;15.40;11.10;;;;;;;9.64;75.35;101588.34;5006738;28;20042;-84
2023/01/08 14:24:19;;;;;;;17.88;10.68;;;;;;;9.42;76.04;101580.47;5079108;23;20057;-86
2023/01/08 14:26:53;;;;;;;18.98;12.00;;;;;;;9.37;75.88;101564.75;5003352;28;20503;-86
2023/01/08 14:29:23;;;;;;;16.05;11.05;;;;;;;9.32;75.92;101558.06;5000071;28;20129;-87
2023/01/08 14:31:56;;;;;;;19.77;9.63;;;;;;;9.35;76.60;101582.81;5000324;28;20050;-91
2023/01/08 14:34:36;;;;;;;18.33;11.48;;;;;;;9.13;77.69;101583.78;4986937;28;20098;-90
2023/01/08 14:37:04;;;;;;;15.07;10.38;;;;;;;9.34;77.53;101581.13;5039452;23;20038;-89
2023/01/08 14:39:38;;;;;;;15.50;10.40;;;;;;;9.29;77.89;101592.25;5009214;28;20042;-90
2023/01/08 14:45:01;;;;;;;17.15;10.85;;;;;;;9.11;78.88;101582.19;5233468;23;20126;-90
2023/01/08 14:47:29;;;;;;;17.98;11.75;;;;;;;9.11;78.55;101582.19;4998103;28;20060;-89
2023/01/08 14:49:59;;;;;;;22.15;12.48;;;;;;;9.00;78.79;101567.84;5045605;23;20078;-90
2023/01/08 14:52:52;;;;;;;17.70;12.15;;;;;;;8.78;79.59;101563.44;5132810;23;20050;-90
2023/01/08 14:55:22;;;;;;;18.45;12.35;;;;;;;8.90;80.02;101591.06;4994482;28;20174;-86
2023/01/08 14:58:14;;;;;;;19.65;12.35;;;;;;;8.88;80.57;101582.31;4985013;28;20038;-88
2023/01/08 15:00:53;;;;;;;17.33;10.93;;;;;;;8.82;80.43;101569.38;4993201;28;20039;-89
2023/01/08 15:03:33;;;;;;;17.67;11.93;;;;;;;8.82;80.84;101590.84;4976328;28;20046;-88
2023/01/08 15:05:59;;;;;;;23.30;13.63;;;;;;;8.55;81.26;101568.03;5037638;23;20093;-91
2023/01/08 15:08:25;;;;;;;;;;;;;;;8.55;81.91;101586.78;5062051;23;20070;-91
2023/01/08 15:11:04;;;;;;;19.65;13.20;;;;;;;8.40;81.89;101566.56;5011922;28;19913;-92
2023/01/08 15:13:38;;;;;;;17.38;12.40;;;;;;;8.24;82.56;101558.88;5070096;23;20094;-89
2023/01/08 15:16:32;;;;;;;17.35;11.32;;;;;;;8.34;83.25;101586.66;4977295;28;20125;-88
2023/01/08 15:21:30;;;;;;;26.15;13.48;;;;;;;8.33;82.95;101584.94;5041088;22;20050;-86
2023/01/08 15:24:00;;;;;;;22.95;13.57;;;;;;;8.31;83.43;101581.56;5127249;22;21379;-85
2023/01/08 15:26:27;;;;;;;22.10;13.82;;;;;;;8.27;83.90;101580.09;5003990;28;20145;-88
2023/01/08 15:29:00;;;;;;;20.80;14.40;;;;;;;8.28;84.17;101578.25;5015077;28;20074;-89
2023/01/08 15:31:34;;;;;;;22.83;13.35;;;;;;;8.18;84.59;101579.00;5072119;23;20134;-89
2023/01/08 15:34:01;;;;;;;22.08;13.15;;;;;;;8.28;84.58;101580.94;5024573;23;20042;-91
2023/01/08 15:36:30;;;;;;;21.88;14.25;;;;;;;8.13;85.03;101566.97;4986948;28;20055;-87
2023/01/08 15:38:57;;;;;;;22.00;14.25;;;;;;;8.04;85.61;101573.91;4985060;28;20035;-91
2023/01/08 15:44:14;;;;;;;22.05;13.80;;;;;;;8.16;86.30;101577.41;4996922;28;20150;-86
2023/01/08 15:46:46;;;;;;;17.88;12.35;;;;;;;8.16;86.58;101583.63;4988892;28;20047;-86
2023/01/08 15:49:20;;;;;;;19.55;12.75;;;;;;;8.06;86.89;101565.75;4993811;28;20058;-88
2023/01/08 15:51:50;;;;;;;21.55;14.00;;;;;;;8.19;86.85;101578.03;4983995;28;20055;-89
2023/01/08 15:54:41;;;;;;;17.50;12.07;;;;;;;8.27;86.32;101574.75;4992607;28;20098;-86
2023/01/08 15:57:22;;;;;;;19.67;13.38;;;;;;;8.11;86.59;101575.09;4989345;28;20047;-90
2023/01/08 16:00:30;;;;;;;19.15;12.55;;;;;;;8.28;86.68;101597.00;5039535;23;20047;-89
2023/01/08 16:02:58;;;;;;;17.10;11.30;;;;;;;8.36;86.26;101590.06;5102764;22;20085;-87
2023/01/08 16:08:38;;;;;;;17.70;12.27;;;;;;;8.18;86.46;101579.00;5704233;23;19918;-85
2023/01/08 16:13:51;;;;;;;21.00;11.38;;;;;;;8.47;85.80;101616.00;5012694;28;20046;-86
2023/01/08 16:17:03;;;;;;;17.30;11.05;;;;;;;8.56;85.49;101609.91;5087970;23;20114;-88
2023/01/08 16:19:37;;;;;;;16.02;10.63;;;;;;;8.48;85.19;101603.50;5074829;22;20102;-90
2023/01/08 16:22:06;;;;;;;15.20;9.23;;;;;;;8.38;85.00;101587.25;4993863;28;20046;-90
2023/01/08 16:24:33;;;;;;;16.17;10.52;;;;;;;8.31;84.81;101565.47;5018296;22;20053;-88
2023/01/08 16:27:05;;;;;;;13.38;10.02;;;;;;;8.47;84.71;101593.72;5011241;28;20069;-90
2023/01/08 16:29:57;;;;;;;13.13;9.52;;;;;;;8.51;84.76;101603.22;5013556;28;20037;-88
2023/01/08 16:32:49;;;;;;;14.68;9.93;;;;;;;8.50;84.99;101607.75;5002463;28;20069;-92
2023/01/08 16:35:15;;;;;;;16.20;10.20;;;;;;;8.50;84.41;101596.16;5095662;23;20112;-89
2023/01/08 16:37:43;;;;;;;15.27;10.80;;;;;;;8.34;84.96;101588.50;5304877;23;20077;-89
2023/01/08 16:40:12;;;;;;;13.88;10.18;;;;;;;8.25;85.20;101576.69;5392652;23;20028;-89
2023/01/08 16:42:46;;;;;;;14.57;9.90;;;;;;;8.39;85.06;101583.63;5090001;23;20038;-89
2023/01/08 16:45:14;;;;;;;13.65;8.85;;;;;;;8.31;85.85;101586.91;5221389;23;20058;-87
2023/01/08 16:47:43;;;;;;;18.77;12.98;;;;;;;8.30;85.62;101576.31;5094316;23;20062;-86
2023/01/08 16:50:35;;;;;;;21.02;10.88;;;;;;;8.59;85.42;101617.72;5094129;23;20055;-88
2023/01/08 16:53:02;;;;;;;15.20;11.23;;;;;;;8.43;84.90;101585.94;5013885;28;20066;-90
2023/01/08 16:55:30;;;;;;;13.32;8.68;;;;;;;8.55;84.87;101618.94;5048596;23;20053;-86
2023/01/08 16:58:04;;;;;;;13.02;8.13;;;;;;;8.28;84.81;101583.63;5031685;28;20030;-91
2023/01/08 17:00:30;;;;;;;15.75;9.30;;;;;;;8.42;84.94;101604.81;5014793;28;20041;-91
2023/01/08 17:05:59;;;;;;;16.17;9.48;;;;;;;8.68;84.34;101616.09;5122906;23;20681;-90
2023/01/08 17:08:27;;;;;;;14.27;8.63;;;;;;;8.70;83.99;101624.03;4990873;28;20080;-87
2023/01/08 17:11:24;;;;;;;13.60;9.18;;;;;;;8.50;84.31;101602.38;4989703;28;20042;-89
2023/01/08 17:13:50;;;;;;;11.95;8.50;;;;;;;8.44;84.03;101581.44;4968206;28;20063;-87
2023/01/08 17:16:22;;;;;;;10.75;7.93;;;;;;;8.57;84.14;101598.22;4969720;28;20030;-90
2023/01/08 17:19:12;;;;;;;15.73;8.50;;;;;;;8.39;84.65;101597.00;4956524;28;20418;-87
2023/01/08 17:21:43;;;;;;;12.93;7.40;;;;;;;8.43;84.33;101612.75;5007386;28;20062;-86
2023/01/08 17:24:13;;;;;;;12.60;7.75;;;;;;;8.34;84.69;101607.25;4974370;28;20523;-88
2023/01/08 17:26:48;;;;;;;10.30;7.50;;;;;;;8.49;84.22;101622.09;4966817;28;20046;-89
2023/01/08 17:29:16;;;;;;;11.82;8.02;;;;;;;8.32;84.37;101579.72;5006579;28;20050;-88
2023/01/08 17:32:00;;;;;;;12.75;8.18;;;;;;;8.30;84.40;101600.44;4972271;28;20043;-89
2023/01/08 17:34:28;;;;;;;11.52;6.88;;;;;;;8.34;84.30;101607.25;4990056;28;20035;-88
2023/01/08 17:36:56;;;;;;;9.77;6.95;;;;;;;8.35;84.48;101622.34;5096878;23;20521;-87
2023/01/08 17:39:49;;;;;;;11.63;6.78;;;;;;;8.19;84.81;101607.50;4965835;28;20027;-87
2023/01/08 17:42:39;;;;;;;11.20;7.47;;;;;;;8.31;84.61;101615.50;4989014;28;20055;-85
2023/01/08 17:45:07;;;;;;;11.73;7.20;;;;;;;8.29;85.18;101636.22;4947751;28;20047;-87
2023/01/08 17:47:42;;;;;;;10.75;6.97;;;;;;;8.30;85.14;101625.38;4966871;29;20050;-87
2023/01/08 18:10:56;;;;;;;9.60;6.45;;;;;;;8.44;83.07;101624.31;4436168;23;20413298;-90
2023/01/08 18:13:44;;;;;;;8.95;6.55;;;;;;;8.39;83.49;101613.09;4987890;28;20039;-90
2023/01/08 18:26:56;;;;;;;8.30;5.32;;;;;;;8.53;83.34;101628.94;5367027;23;20046;-86
2023/01/08 18:29:26;;;;;;;9.70;5.68;;;;;;;8.32;83.46;101595.81;4955717;28;20125;-90
2023/01/08 18:31:51;;;;;;;7.68;4.97;;;;;;;8.57;83.12;101629.53;4947638;28;20057;-86
2023/01/08 18:34:27;;;;;;;8.40;4.78;;;;;;;8.38;83.06;101608.69;4957974;28;20038;-86
2023/01/08 18:36:57;;;;;;;11.52;5.55;;;;;;;8.57;82.84;101622.34;4988089;28;20047;-91
2023/01/08 18:39:49;;;;;;;10.32;6.63;;;;;;;8.74;82.49;101636.22;4971726;28;20019;-90
2023/01/08 18:42:26;;;;;;;8.70;5.20;;;;;;;8.39;82.43;101599.69;4982656;28;20077;-91
2023/01/08 18:45:15;;;;;;;5.63;3.90;;;;;;;8.48;81.42;101622.25;4961703;28;20078;-90
2023/01/08 18:47:42;;;;;;;5.88;4.10;;;;;;;8.38;81.53;101614.91;4969731;28;20034;-91
2023/01/08 18:50:17;;;;;;;7.18;3.88;;;;;;;8.40;81.23;101618.34;4973769;28;20057;-90
2023/01/08 18:53:05;;;;;;;8.32;4.95;;;;;;;8.41;81.39;101611.16;4975948;28;20027;-89